createdAt,value
2022-09-06T00:00:40.182Z,22.09
2022-09-06T00:01:40.161Z,22.08
2022-09-06T00:02:40.191Z,22.09
2022-09-06T00:03:40.204Z,22.11
2022-09-06T00:04:40.121Z,22.09
2022-09-06T00:05:40.124Z,22.09
2022-09-06T00:06:40.101Z,22.11
2022-09-06T00:07:40.080Z,22.08
2022-09-06T00:08:40.088Z,22.06
2022-09-06T00:09:40.078Z,22.06
2022-09-06T00:10:40.034Z,22.09
2022-09-06T00:11:40.037Z,22.09
2022-09-06T00:12:40.009Z,22.09
2022-09-06T00:13:40.011Z,22.11
2022-09-06T00:14:40.001Z,22.11
2022-09-06T00:15:40.014Z,22.11
2022-09-06T00:16:39.970Z,22.12
2022-09-06T00:17:39.959Z,22.12
2022-09-06T00:18:39.980Z,22.12
2022-09-06T00:19:39.931Z,22.11
2022-09-06T00:20:39.919Z,22.12
2022-09-06T00:21:39.910Z,22.12
2022-09-06T00:22:39.893Z,22.12
2022-09-06T00:23:39.879Z,22.14
2022-09-06T00:24:39.860Z,22.17
2022-09-06T00:25:39.851Z,22.19
2022-09-06T00:26:39.989Z,22.21
2022-09-06T00:27:39.833Z,22.21
2022-09-06T00:28:39.830Z,22.21
2022-09-06T00:29:39.779Z,22.20
2022-09-06T00:30:39.883Z,22.12
2022-09-06T00:31:39.765Z,22.06
2022-09-06T00:32:39.745Z,22.02
2022-09-06T00:33:39.760Z,21.96
2022-09-06T00:34:39.719Z,21.89
2022-09-06T00:35:39.698Z,21.79
2022-09-06T00:36:39.709Z,21.73
2022-09-06T00:37:39.676Z,21.64
2022-09-06T00:38:39.678Z,21.56
2022-09-06T00:39:39.733Z,21.51
2022-09-06T00:40:39.655Z,21.48
2022-09-06T00:41:39.657Z,21.45
2022-09-06T00:42:39.616Z,21.42
2022-09-06T00:43:39.607Z,21.34
2022-09-06T00:44:39.585Z,21.31
2022-09-06T00:45:39.576Z,21.31
2022-09-06T00:46:39.590Z,21.26
2022-09-06T00:47:39.561Z,21.21
2022-09-06T00:48:39.536Z,21.18
2022-09-06T00:49:39.530Z,21.15
2022-09-06T00:50:39.509Z,21.12
2022-09-06T00:51:39.500Z,21.12
2022-09-06T00:52:39.498Z,21.11
2022-09-06T00:53:39.478Z,21.06
2022-09-06T00:54:39.453Z,21.03
2022-09-06T00:55:39.445Z,21.05
2022-09-06T00:56:39.425Z,21.06
2022-09-06T00:57:39.417Z,21.05
2022-09-06T00:58:39.386Z,21.05
2022-09-06T00:59:39.418Z,21.00
2022-09-06T01:00:39.395Z,20.93
2022-09-06T01:01:39.464Z,20.87
2022-09-06T01:02:39.485Z,20.78
2022-09-06T01:03:39.347Z,20.68
2022-09-06T01:04:39.351Z,20.60
2022-09-06T01:05:39.314Z,20.54
2022-09-06T01:06:39.319Z,20.46
2022-09-06T01:07:39.279Z,20.38
2022-09-06T01:08:39.287Z,20.33
2022-09-06T01:09:39.270Z,20.31
2022-09-06T01:10:39.267Z,20.30
2022-09-06T01:11:39.236Z,20.27
2022-09-06T01:12:46.297Z,20.27
2022-09-06T01:13:41.953Z,20.23
2022-09-06T01:14:39.209Z,20.25
2022-09-06T01:15:40.149Z,20.22
2022-09-06T01:16:39.190Z,20.17
2022-09-06T01:17:39.167Z,20.16
2022-09-06T01:18:39.137Z,20.15
2022-09-06T01:19:39.149Z,20.12
2022-09-06T01:20:39.145Z,20.08
2022-09-06T01:21:39.104Z,20.04
2022-09-06T01:22:39.120Z,20.04
2022-09-06T01:23:39.073Z,20.05
2022-09-06T01:24:39.075Z,20.08
2022-09-06T01:25:39.074Z,20.08
2022-09-06T01:26:39.026Z,20.10
2022-09-06T01:27:39.038Z,20.08
2022-09-06T01:28:38.997Z,20.07
2022-09-06T01:29:39.007Z,20.10
2022-09-06T01:30:39.090Z,20.08
2022-09-06T01:31:38.987Z,20.07
2022-09-06T01:32:38.966Z,20.05
2022-09-06T01:33:38.953Z,20.05
2022-09-06T01:34:38.931Z,20.08
2022-09-06T01:35:38.945Z,20.07
2022-09-06T01:36:49.702Z,20.07
2022-09-06T01:37:39.894Z,20.04
2022-09-06T01:38:38.878Z,20.01
2022-09-06T01:39:38.917Z,20.02
2022-09-06T01:40:38.893Z,20.05
2022-09-06T01:41:38.847Z,20.07
2022-09-06T01:42:38.828Z,20.08
2022-09-06T01:43:38.822Z,20.05
2022-09-06T01:44:38.797Z,20.05
2022-09-06T01:45:38.815Z,20.04
2022-09-06T01:46:38.905Z,20.04
2022-09-06T01:47:38.760Z,20.02
2022-09-06T01:48:38.743Z,19.98
2022-09-06T01:49:38.735Z,20.00
2022-09-06T01:50:38.737Z,19.98
2022-09-06T01:51:38.736Z,19.97
2022-09-06T01:52:38.707Z,19.95
2022-09-06T01:53:38.681Z,19.97
2022-09-06T01:54:38.695Z,20.00
2022-09-06T01:55:38.674Z,19.98
2022-09-06T01:56:38.640Z,20.00
2022-09-06T01:57:38.635Z,20.00
2022-09-06T01:58:38.626Z,20.00
2022-09-06T01:59:38.603Z,20.01
2022-09-06T02:00:38.604Z,20.01
2022-09-06T02:01:38.763Z,20.00
2022-09-06T02:02:38.602Z,20.01
2022-09-06T02:03:38.555Z,19.98
2022-09-06T02:04:38.558Z,19.98
2022-09-06T02:05:38.559Z,20.00
2022-09-06T02:06:38.528Z,19.95
2022-09-06T02:07:38.516Z,19.90
2022-09-06T02:08:38.492Z,19.86
2022-09-06T02:09:38.497Z,19.86
2022-09-06T02:10:38.487Z,19.86
2022-09-06T02:11:38.451Z,19.86
2022-09-06T02:12:38.446Z,19.85
2022-09-06T02:13:38.444Z,19.86
2022-09-06T02:14:38.410Z,19.82
2022-09-06T02:15:38.415Z,19.80
2022-09-06T02:16:38.445Z,19.80
2022-09-06T02:17:38.372Z,19.82
2022-09-06T02:18:38.353Z,19.79
2022-09-06T02:19:38.398Z,19.78
2022-09-06T02:20:38.352Z,19.76
2022-09-06T02:21:38.359Z,19.75
2022-09-06T02:22:38.328Z,19.72
2022-09-06T02:23:38.292Z,19.72
2022-09-06T02:24:38.310Z,19.70
2022-09-06T02:25:38.300Z,19.64
2022-09-06T02:26:38.268Z,19.62
2022-09-06T02:27:38.256Z,19.67
2022-09-06T02:28:38.246Z,19.70
2022-09-06T02:29:38.226Z,19.68
2022-09-06T02:30:38.272Z,19.71
2022-09-06T02:31:38.205Z,19.70
2022-09-06T02:32:38.188Z,19.70
2022-09-06T02:33:38.173Z,19.68
2022-09-06T02:34:38.165Z,19.64
2022-09-06T02:35:38.152Z,19.67
2022-09-06T02:36:38.136Z,19.67
2022-09-06T02:37:38.138Z,19.65
2022-09-06T02:38:38.105Z,19.65
2022-09-06T02:39:38.147Z,19.68
2022-09-06T02:40:38.101Z,19.68
2022-09-06T02:41:38.086Z,19.67
2022-09-06T02:42:38.066Z,19.71
2022-09-06T02:43:38.031Z,19.75
2022-09-06T02:44:38.046Z,19.76
2022-09-06T02:45:38.077Z,19.79
2022-09-06T02:46:38.027Z,19.78
2022-09-06T02:47:38.005Z,19.78
2022-09-06T02:48:38.006Z,19.76
2022-09-06T02:49:37.975Z,19.72
2022-09-06T02:50:37.951Z,19.75
2022-09-06T02:51:37.961Z,19.78
2022-09-06T02:52:37.928Z,19.78
2022-09-06T02:53:37.918Z,19.78
2022-09-06T02:54:37.920Z,19.76
2022-09-06T02:55:37.890Z,19.78
2022-09-06T02:56:37.896Z,19.82
2022-09-06T02:57:37.876Z,19.86
2022-09-06T02:58:37.863Z,19.83
2022-09-06T02:59:37.849Z,19.83
2022-09-06T03:00:37.837Z,19.86
2022-09-06T03:01:37.935Z,19.86
2022-09-06T03:02:37.827Z,19.85
2022-09-06T03:03:37.805Z,19.86
2022-09-06T03:04:37.762Z,19.86
2022-09-06T03:05:37.777Z,19.83
2022-09-06T03:06:37.756Z,19.79
2022-09-06T03:07:37.732Z,19.76
2022-09-06T03:08:37.720Z,19.75
2022-09-06T03:09:37.710Z,19.76
2022-09-06T03:10:37.704Z,19.76
2022-09-06T03:11:37.712Z,19.76
2022-09-06T03:12:37.696Z,19.76
2022-09-06T03:13:37.676Z,19.75
2022-09-06T03:14:37.654Z,19.75
2022-09-06T03:15:37.646Z,19.72
2022-09-06T03:16:37.690Z,19.71
2022-09-06T03:17:37.635Z,19.72
2022-09-06T03:18:37.618Z,19.70
2022-09-06T03:19:37.601Z,19.68
2022-09-06T03:20:37.575Z,19.72
2022-09-06T03:21:37.575Z,19.75
2022-09-06T03:22:37.550Z,19.78
2022-09-06T03:23:37.542Z,19.76
2022-09-06T03:24:37.524Z,19.72
2022-09-06T03:25:37.510Z,19.70
2022-09-06T03:26:37.500Z,19.68
2022-09-06T03:27:37.494Z,19.65
2022-09-06T03:28:37.462Z,19.64
2022-09-06T03:29:37.466Z,19.65
2022-09-06T03:30:37.500Z,19.70
2022-09-06T03:31:37.457Z,19.71
2022-09-06T03:32:37.410Z,19.72
2022-09-06T03:33:37.426Z,19.72
2022-09-06T03:34:37.423Z,19.72
2022-09-06T03:35:37.391Z,19.71
2022-09-06T03:36:37.381Z,19.70
2022-09-06T03:37:37.349Z,19.70
2022-09-06T03:38:37.348Z,19.71
2022-09-06T03:39:37.358Z,19.71
2022-09-06T03:40:37.322Z,19.71
2022-09-06T03:41:37.324Z,19.72
2022-09-06T03:42:37.296Z,19.76
2022-09-06T03:43:37.291Z,19.78
2022-09-06T03:44:37.260Z,19.78
2022-09-06T03:45:37.292Z,19.76
2022-09-06T03:46:37.261Z,19.78
2022-09-06T03:47:37.235Z,19.79
2022-09-06T03:48:37.224Z,19.79
2022-09-06T03:49:37.191Z,19.79
2022-09-06T03:50:37.189Z,19.78
2022-09-06T03:51:37.190Z,19.78
2022-09-06T03:52:37.167Z,19.80
2022-09-06T03:53:37.166Z,19.82
2022-09-06T03:54:37.155Z,19.83
2022-09-06T03:55:37.137Z,19.80
2022-09-06T03:56:37.106Z,19.79
2022-09-06T03:57:37.105Z,19.78
2022-09-06T03:58:37.103Z,19.76
2022-09-06T03:59:37.106Z,19.72
2022-09-06T04:00:37.073Z,19.70
2022-09-06T04:01:37.082Z,19.67
2022-09-06T04:02:37.061Z,19.67
2022-09-06T04:03:37.016Z,19.64
2022-09-06T04:04:37.008Z,19.64
2022-09-06T04:05:37.007Z,19.61
2022-09-06T04:06:36.981Z,19.61
2022-09-06T04:07:36.975Z,19.60
2022-09-06T04:08:36.947Z,19.60
2022-09-06T04:09:36.963Z,19.60
2022-09-06T04:10:36.952Z,19.57
2022-09-06T04:11:36.933Z,19.55
2022-09-06T04:12:36.910Z,19.55
2022-09-06T04:13:36.895Z,19.53
2022-09-06T04:14:36.870Z,19.50
2022-09-06T04:15:36.859Z,19.49
2022-09-06T04:16:36.899Z,19.47
2022-09-06T04:17:36.841Z,19.45
2022-09-06T04:18:36.815Z,19.43
2022-09-06T04:19:36.809Z,19.42
2022-09-06T04:20:36.812Z,19.38
2022-09-06T04:21:36.808Z,19.35
2022-09-06T04:22:36.779Z,19.32
2022-09-06T04:23:39.910Z,19.30
2022-09-06T04:24:36.766Z,19.28
2022-09-06T04:25:36.728Z,19.28
2022-09-06T04:26:36.729Z,19.27
2022-09-06T04:27:36.712Z,19.28
2022-09-06T04:28:36.698Z,19.28
2022-09-06T04:29:36.690Z,19.25
2022-09-06T04:30:36.659Z,19.24
2022-09-06T04:31:36.726Z,19.23
2022-09-06T04:32:36.650Z,19.21
2022-09-06T04:33:36.651Z,19.20
2022-09-06T04:34:36.626Z,19.17
2022-09-06T04:35:36.602Z,19.17
2022-09-06T04:36:36.600Z,19.17
2022-09-06T04:37:36.582Z,19.16
2022-09-06T04:38:36.623Z,19.15
2022-09-06T04:39:36.581Z,19.15
2022-09-06T04:40:36.542Z,19.13
2022-09-06T04:41:36.544Z,19.10
2022-09-06T04:42:36.510Z,19.10
2022-09-06T04:43:36.532Z,19.09
2022-09-06T04:44:36.490Z,19.05
2022-09-06T04:45:36.553Z,19.02
2022-09-06T04:46:36.461Z,19.05
2022-09-06T04:47:36.440Z,19.02
2022-09-06T04:48:36.445Z,18.99
2022-09-06T04:49:36.425Z,18.99
2022-09-06T04:50:36.398Z,18.97
2022-09-06T04:51:36.404Z,18.97
2022-09-06T04:52:36.378Z,18.94
2022-09-06T04:53:36.388Z,18.96
2022-09-06T04:54:36.381Z,18.94
2022-09-06T04:55:36.341Z,18.94
2022-09-06T04:56:36.339Z,18.93
2022-09-06T04:57:38.964Z,18.91
2022-09-06T04:58:36.314Z,18.91
2022-09-06T04:59:36.300Z,18.90
2022-09-06T05:00:36.283Z,18.89
2022-09-06T05:01:36.293Z,18.90
2022-09-06T05:02:36.313Z,18.90
2022-09-06T05:03:36.250Z,18.89
2022-09-06T05:04:36.218Z,18.87
2022-09-06T05:05:36.226Z,18.86
2022-09-06T05:06:36.189Z,18.86
2022-09-06T05:07:36.179Z,18.86
2022-09-06T05:08:36.212Z,18.87
2022-09-06T05:09:36.209Z,18.86
2022-09-06T05:10:36.156Z,18.83
2022-09-06T05:11:36.139Z,18.84
2022-09-06T05:12:37.390Z,18.83
2022-09-06T05:13:36.098Z,18.84
2022-09-06T05:14:36.097Z,18.86
2022-09-06T05:15:36.091Z,18.86
2022-09-06T05:16:36.136Z,18.87
2022-09-06T05:17:36.049Z,18.87
2022-09-06T05:18:36.048Z,18.89
2022-09-06T05:19:36.017Z,18.90
2022-09-06T05:20:36.021Z,18.91
2022-09-06T05:21:36.020Z,18.93
2022-09-06T05:22:35.986Z,18.93
2022-09-06T05:23:35.998Z,18.91
2022-09-06T05:24:35.978Z,18.91
2022-09-06T05:25:35.939Z,18.93
2022-09-06T05:26:35.954Z,18.93
2022-09-06T05:27:35.941Z,18.91
2022-09-06T05:28:35.919Z,18.91
2022-09-06T05:29:35.886Z,18.94
2022-09-06T05:30:35.885Z,18.91
2022-09-06T05:31:35.912Z,18.93
2022-09-06T05:32:35.881Z,18.93
2022-09-06T05:33:35.848Z,18.90
2022-09-06T05:34:35.865Z,18.93
2022-09-06T05:35:35.878Z,18.94
2022-09-06T05:36:35.833Z,18.96
2022-09-06T05:37:35.808Z,18.97
2022-09-06T05:38:35.815Z,18.97
2022-09-06T05:39:35.805Z,18.97
2022-09-06T05:40:35.737Z,18.97
2022-09-06T05:41:36.740Z,18.97
2022-09-06T05:42:35.728Z,19.01
2022-09-06T05:43:35.709Z,18.99
2022-09-06T05:44:35.685Z,19.01
2022-09-06T05:45:35.794Z,18.99
2022-09-06T05:46:35.690Z,18.99
2022-09-06T05:47:35.670Z,19.01
2022-09-06T05:48:37.250Z,19.01
2022-09-06T05:49:35.615Z,19.01
2022-09-06T05:50:35.649Z,19.02
2022-09-06T05:51:35.623Z,19.02
2022-09-06T05:52:35.598Z,19.06
2022-09-06T05:53:35.565Z,19.07
2022-09-06T05:54:35.589Z,19.09
2022-09-06T05:55:35.714Z,19.09
2022-09-06T05:56:35.556Z,19.10
2022-09-06T05:57:35.543Z,19.12
2022-09-06T05:58:35.546Z,19.09
2022-09-06T05:59:35.519Z,19.09
2022-09-06T06:00:35.503Z,19.12
2022-09-06T06:01:35.516Z,19.12
2022-09-06T06:02:35.525Z,19.15
2022-09-06T06:03:35.497Z,19.13
2022-09-06T06:04:35.435Z,19.12
2022-09-06T06:05:35.457Z,19.13
2022-09-06T06:06:35.439Z,19.13
2022-09-06T06:07:35.386Z,19.16
2022-09-06T06:08:35.373Z,19.17
2022-09-06T06:09:35.371Z,19.17
2022-09-06T06:10:38.434Z,19.21
2022-09-06T06:11:35.355Z,19.20
2022-09-06T06:12:35.315Z,19.21
2022-09-06T06:13:35.351Z,19.21
2022-09-06T06:14:35.317Z,19.24
2022-09-06T06:15:35.275Z,19.25
2022-09-06T06:16:35.306Z,19.25
2022-09-06T06:17:35.269Z,19.27
2022-09-06T06:18:35.286Z,19.27
2022-09-06T06:19:35.254Z,19.27
2022-09-06T06:20:35.297Z,19.30
2022-09-06T06:21:35.200Z,19.32
2022-09-06T06:22:35.209Z,19.35
2022-09-06T06:23:35.238Z,19.34
2022-09-06T06:24:35.164Z,19.39
2022-09-06T06:25:35.161Z,19.43
2022-09-06T06:26:35.152Z,19.43
2022-09-06T06:27:35.114Z,19.45
2022-09-06T06:28:35.152Z,19.45
2022-09-06T06:29:35.103Z,19.45
2022-09-06T06:30:35.109Z,19.50
2022-09-06T06:31:35.148Z,19.55
2022-09-06T06:32:35.074Z,19.55
2022-09-06T06:33:35.079Z,19.57
2022-09-06T06:34:35.047Z,19.60
2022-09-06T06:35:38.279Z,19.64
2022-09-06T06:36:36.023Z,19.68
2022-09-06T06:37:35.004Z,19.71
2022-09-06T06:38:35.018Z,19.76
2022-09-06T06:39:35.032Z,19.82
2022-09-06T06:40:34.969Z,19.85
2022-09-06T06:41:34.955Z,19.86
2022-09-06T06:42:34.943Z,19.87
2022-09-06T06:43:34.942Z,19.92
2022-09-06T06:44:34.941Z,19.92
2022-09-06T06:45:34.949Z,19.94
2022-09-06T06:46:34.937Z,19.95
2022-09-06T06:47:34.873Z,19.95
2022-09-06T06:48:34.896Z,19.98
2022-09-06T06:49:34.860Z,20.02
2022-09-06T06:50:34.847Z,20.07
2022-09-06T06:51:34.843Z,20.07
2022-09-06T06:52:34.821Z,20.10
2022-09-06T06:53:34.816Z,20.12
2022-09-06T06:54:34.788Z,20.13
2022-09-06T06:55:34.774Z,20.19
2022-09-06T06:56:34.778Z,20.20
2022-09-06T06:57:34.724Z,20.26
2022-09-06T06:58:34.767Z,20.30
2022-09-06T06:59:34.735Z,20.33
2022-09-06T07:00:34.765Z,20.35
2022-09-06T07:01:34.848Z,20.40
2022-09-06T07:02:34.683Z,20.48
2022-09-06T07:03:34.675Z,20.51
2022-09-06T07:04:34.643Z,20.54
2022-09-06T07:07:37.983Z,20.63
2022-09-06T07:08:35.614Z,20.68
2022-09-06T07:10:35.698Z,20.73
2022-09-06T07:11:34.557Z,20.76
2022-09-06T07:12:34.543Z,20.81
2022-09-06T07:14:37.163Z,20.88
2022-09-06T07:15:37.156Z,20.94
2022-09-06T07:16:37.959Z,21.01
2022-09-06T07:17:37.127Z,21.08
2022-09-06T07:18:37.148Z,21.13
2022-09-06T07:21:38.456Z,21.26
2022-09-06T07:22:37.070Z,21.27
2022-09-06T07:24:38.034Z,21.33
2022-09-06T07:25:37.005Z,21.33
2022-09-06T07:26:37.528Z,21.31
2022-09-06T07:27:52.316Z,21.34
2022-09-06T07:28:37.995Z,21.36
2022-09-06T07:29:36.995Z,21.40
2022-09-06T07:30:36.947Z,21.43
2022-09-06T07:32:37.927Z,21.51
2022-09-06T07:33:36.918Z,21.55
2022-09-06T07:34:36.937Z,21.59
2022-09-06T07:35:36.896Z,21.58
2022-09-06T07:36:36.868Z,21.64
2022-09-06T07:37:36.868Z,21.68
2022-09-06T07:38:36.844Z,21.74
2022-09-06T07:39:36.900Z,21.77
2022-09-06T07:40:36.828Z,21.81
2022-09-06T07:41:36.818Z,21.83
2022-09-06T07:42:36.960Z,21.89
2022-09-06T07:43:36.789Z,21.93
2022-09-06T07:44:36.797Z,21.94
2022-09-06T07:45:36.746Z,21.99
2022-09-06T07:46:36.784Z,22.04
2022-09-06T07:48:37.742Z,22.09
2022-09-06T07:49:36.712Z,22.11
2022-09-06T07:50:54.608Z,22.15
2022-09-06T07:51:37.674Z,22.19
2022-09-06T07:53:38.047Z,22.29
2022-09-06T07:54:36.665Z,22.31
2022-09-06T07:55:36.649Z,22.39
2022-09-06T07:56:36.613Z,22.39
2022-09-06T07:57:36.632Z,22.42
2022-09-06T07:58:36.615Z,22.45
2022-09-06T07:59:40.010Z,22.49
2022-09-06T08:00:37.613Z,22.54
2022-09-06T08:01:36.556Z,22.57
2022-09-06T08:02:36.536Z,22.59
2022-09-06T08:03:36.531Z,22.63
2022-09-06T08:04:36.529Z,22.67
2022-09-06T08:09:37.547Z,22.75
2022-09-06T08:10:36.661Z,22.79
2022-09-06T08:11:36.435Z,22.79
2022-09-06T08:12:36.544Z,22.78
2022-09-06T08:13:36.404Z,22.81
2022-09-06T08:14:36.387Z,22.85
2022-09-06T08:15:36.408Z,22.89
2022-09-06T08:16:36.434Z,22.93
2022-09-06T08:17:36.352Z,22.94
2022-09-06T08:18:36.325Z,22.99
2022-09-06T08:19:36.307Z,23.03
2022-09-06T08:20:36.343Z,23.09
2022-09-06T08:21:36.295Z,23.15
2022-09-06T08:22:36.287Z,23.18
2022-09-06T08:23:36.277Z,23.22
2022-09-06T08:24:36.264Z,23.26
2022-09-06T08:25:36.234Z,23.29
2022-09-06T08:26:36.233Z,23.31
2022-09-06T08:27:36.227Z,23.32
2022-09-06T08:28:36.228Z,23.34
2022-09-06T08:29:36.222Z,23.38
2022-09-06T08:30:36.182Z,23.41
2022-09-06T08:31:36.227Z,23.45
2022-09-06T08:32:36.178Z,23.50
2022-09-06T08:33:36.134Z,23.54
2022-09-06T08:34:36.155Z,23.59
2022-09-06T08:35:36.178Z,23.60
2022-09-06T08:36:36.106Z,23.67
2022-09-06T08:37:36.073Z,23.69
2022-09-06T08:38:36.086Z,23.71
2022-09-06T08:39:36.120Z,23.78
2022-09-06T08:40:36.044Z,23.81
2022-09-06T08:41:36.036Z,23.86
2022-09-06T08:42:36.013Z,23.89
2022-09-06T08:43:36.017Z,23.93
2022-09-06T08:45:36.976Z,23.94
2022-09-06T08:46:36.034Z,23.97
2022-09-06T08:47:35.959Z,24.02
2022-09-06T08:48:35.952Z,24.04
2022-09-06T08:49:35.958Z,24.04
2022-09-06T08:50:35.934Z,24.09
2022-09-06T08:51:38.399Z,24.14
2022-09-06T08:52:35.904Z,24.18
2022-09-06T08:53:35.873Z,24.21
2022-09-06T08:54:35.881Z,24.24
2022-09-06T08:55:35.880Z,24.27
2022-09-06T08:56:35.844Z,24.30
2022-09-06T08:57:39.945Z,24.34
2022-09-06T08:58:35.807Z,24.37
2022-09-06T08:59:35.793Z,24.44
2022-09-06T09:00:35.815Z,24.42
2022-09-06T09:01:35.800Z,24.44
2022-09-06T09:02:35.774Z,24.49
2022-09-06T09:03:35.747Z,24.49
2022-09-06T09:04:35.887Z,24.51
2022-09-06T09:05:35.703Z,24.52
2022-09-06T09:06:35.701Z,24.51
2022-09-06T09:07:35.706Z,24.56
2022-09-06T09:08:35.673Z,24.61
2022-09-06T09:09:35.678Z,24.64
2022-09-06T09:10:35.649Z,24.68
2022-09-06T09:11:35.637Z,24.68
2022-09-06T09:12:35.619Z,24.67
2022-09-06T09:13:35.617Z,24.70
2022-09-06T09:14:35.625Z,24.71
2022-09-06T09:15:39.686Z,24.77
2022-09-06T09:16:35.633Z,24.79
2022-09-06T09:17:35.551Z,24.80
2022-09-06T09:18:35.554Z,24.80
2022-09-06T09:19:35.537Z,24.80
2022-09-06T09:20:35.510Z,24.86
2022-09-06T09:21:35.494Z,24.87
2022-09-06T09:22:35.491Z,24.92
2022-09-06T09:23:35.492Z,24.93
2022-09-06T09:24:35.485Z,24.94
2022-09-06T09:25:35.443Z,24.94
2022-09-06T09:26:35.449Z,24.98
2022-09-06T09:27:35.420Z,25.02
2022-09-06T09:28:35.409Z,25.02
2022-09-06T09:29:36.457Z,25.04
2022-09-06T09:30:50.712Z,25.11
2022-09-06T09:31:36.475Z,25.14
2022-09-06T09:32:35.375Z,25.14
2022-09-06T09:33:35.362Z,25.17
2022-09-06T09:34:35.349Z,25.19
2022-09-06T09:35:35.325Z,25.20
2022-09-06T09:36:35.301Z,25.24
2022-09-06T09:37:54.190Z,25.31
2022-09-06T09:38:36.286Z,25.36
2022-09-06T09:39:35.315Z,25.36
2022-09-06T09:40:35.368Z,25.39
2022-09-06T09:41:35.234Z,25.41
2022-09-06T09:42:35.221Z,25.44
2022-09-06T09:43:35.230Z,25.46
2022-09-06T09:44:35.213Z,25.48
2022-09-06T09:45:35.181Z,25.51
2022-09-06T09:46:35.260Z,25.53
2022-09-06T09:47:35.185Z,25.56
2022-09-06T09:48:35.156Z,25.56
2022-09-06T09:49:35.142Z,25.57
2022-09-06T09:50:35.183Z,25.59
2022-09-06T09:51:35.116Z,25.57
2022-09-06T09:52:35.117Z,25.57
2022-09-06T09:53:35.098Z,25.57
2022-09-06T09:54:35.108Z,25.54
2022-09-06T09:55:35.061Z,25.54
2022-09-06T09:56:35.056Z,25.54
2022-09-06T09:57:35.058Z,25.54
2022-09-06T09:58:35.009Z,25.56
2022-09-06T09:59:35.039Z,25.59
2022-09-06T10:00:35.041Z,25.63
2022-09-06T10:01:35.006Z,25.69
2022-09-06T10:02:34.982Z,25.74
2022-09-06T10:03:35.144Z,25.76
2022-09-06T10:05:35.942Z,25.85
2022-09-06T10:07:35.946Z,25.89
2022-09-06T10:08:34.889Z,25.90
2022-09-06T10:09:34.914Z,25.89
2022-09-06T10:10:34.874Z,25.90
2022-09-06T10:11:34.877Z,25.90
2022-09-06T10:12:34.841Z,25.91
2022-09-06T10:13:34.838Z,25.89
2022-09-06T10:14:34.877Z,25.89
2022-09-06T10:15:34.843Z,25.86
2022-09-06T10:16:34.838Z,25.86
2022-09-06T10:17:34.821Z,25.85
2022-09-06T10:18:34.795Z,25.86
2022-09-06T10:19:34.763Z,25.89
2022-09-06T10:20:34.758Z,25.91
2022-09-06T10:21:34.761Z,25.93
2022-09-06T10:22:34.725Z,25.96
2022-09-06T10:24:35.691Z,26.01
2022-09-06T10:25:34.692Z,26.06
2022-09-06T10:26:34.650Z,26.11
2022-09-06T10:27:35.890Z,26.17
2022-09-06T10:28:34.650Z,26.21
2022-09-06T10:29:34.654Z,26.24
2022-09-06T10:30:34.622Z,26.24
2022-09-06T10:31:34.666Z,26.23
2022-09-06T10:32:34.603Z,26.24
2022-09-06T10:33:34.588Z,26.24
2022-09-06T10:34:34.563Z,26.24
2022-09-06T10:35:34.551Z,26.27
2022-09-06T10:36:34.539Z,26.27
2022-09-06T10:37:34.528Z,26.28
2022-09-06T10:38:34.589Z,26.35
2022-09-06T10:39:34.545Z,26.35
2022-09-06T10:40:34.492Z,26.36
2022-09-06T10:41:34.476Z,26.36
2022-09-06T10:42:34.450Z,26.35
2022-09-06T10:43:34.460Z,26.35
2022-09-06T10:44:34.435Z,26.35
2022-09-06T10:45:34.410Z,26.32
2022-09-06T10:46:34.499Z,26.32
2022-09-06T10:47:34.414Z,26.32
2022-09-06T10:48:34.389Z,26.34
2022-09-06T10:49:34.400Z,26.39
2022-09-06T10:50:34.363Z,26.44
2022-09-06T10:51:34.330Z,26.49
2022-09-06T10:52:34.330Z,26.53
2022-09-06T10:53:34.326Z,26.61
2022-09-06T10:54:34.337Z,26.69
2022-09-06T10:55:34.290Z,26.72
2022-09-06T10:56:34.280Z,26.75
2022-09-06T10:59:35.811Z,26.81
2022-09-06T11:00:34.232Z,26.84
2022-09-06T11:01:34.253Z,26.86
2022-09-06T11:02:34.635Z,26.90
2022-09-06T11:05:38.546Z,26.93
2022-09-06T11:06:34.140Z,26.90
2022-09-06T11:07:34.607Z,26.81
2022-09-06T11:08:51.103Z,26.76
2022-09-06T11:09:35.122Z,26.75
2022-09-06T11:10:34.103Z,26.73
2022-09-06T11:11:34.093Z,26.73
2022-09-06T11:12:34.068Z,26.73
2022-09-06T11:13:34.050Z,26.73
2022-09-06T11:14:34.075Z,26.72
2022-09-06T11:15:34.127Z,26.73
2022-09-06T11:16:34.081Z,26.76
2022-09-06T11:17:34.032Z,26.76
2022-09-06T11:18:33.987Z,26.81
2022-09-06T11:19:33.988Z,26.83
2022-09-06T11:20:33.978Z,26.86
2022-09-06T11:21:33.970Z,26.93
2022-09-06T11:22:33.959Z,26.97
2022-09-06T11:23:33.921Z,27.05
2022-09-06T11:24:33.933Z,27.06
2022-09-06T11:25:33.911Z,27.09
2022-09-06T11:26:33.880Z,27.13
2022-09-06T11:27:33.903Z,27.18
2022-09-06T11:28:33.872Z,27.16
2022-09-06T11:29:33.877Z,27.13
2022-09-06T11:30:33.853Z,27.13
2022-09-06T11:32:34.820Z,27.12
2022-09-06T11:33:33.811Z,27.16
2022-09-06T11:34:33.800Z,27.18
2022-09-06T11:35:33.799Z,27.16
2022-09-06T11:36:33.763Z,27.18
2022-09-06T11:37:33.753Z,27.21
2022-09-06T11:38:33.727Z,27.21
2022-09-06T11:40:34.713Z,27.30
2022-09-06T11:41:33.784Z,27.35
2022-09-06T11:42:33.692Z,27.39
2022-09-06T11:43:33.678Z,27.40
2022-09-06T11:44:33.683Z,27.43
2022-09-06T11:45:33.663Z,27.48
2022-09-06T11:46:33.663Z,27.55
2022-09-06T11:47:33.642Z,27.59
2022-09-06T11:48:33.603Z,27.63
2022-09-06T11:49:33.596Z,27.68
2022-09-06T11:50:33.586Z,27.69
2022-09-06T11:51:33.560Z,27.71
2022-09-06T11:52:33.541Z,27.69
2022-09-06T11:53:33.558Z,27.69
2022-09-06T11:54:33.531Z,27.68
2022-09-06T11:55:33.519Z,27.69
2022-09-06T11:56:33.506Z,27.71
2022-09-06T11:57:33.500Z,27.76
2022-09-06T11:58:33.469Z,27.74
2022-09-06T11:59:33.468Z,27.78
2022-09-06T12:00:33.446Z,27.77
2022-09-06T12:01:33.437Z,27.78
2022-09-06T12:02:33.564Z,27.77
2022-09-06T12:04:34.412Z,27.76
2022-09-06T12:05:33.392Z,27.77
2022-09-06T12:06:33.384Z,27.78
2022-09-06T12:07:33.349Z,27.81
2022-09-06T12:08:33.379Z,27.83
2022-09-06T12:09:33.361Z,27.87
2022-09-06T12:10:33.326Z,27.87
2022-09-06T12:11:33.299Z,27.87
2022-09-06T12:12:33.303Z,27.90
2022-09-06T12:13:33.279Z,27.96
2022-09-06T12:14:33.270Z,28.01
2022-09-06T12:15:33.249Z,28.05
2022-09-06T12:16:33.248Z,28.09
2022-09-06T12:17:33.278Z,28.09
2022-09-06T12:18:33.199Z,28.13
2022-09-06T12:19:33.223Z,28.11
2022-09-06T12:20:33.210Z,28.14
2022-09-06T12:21:33.177Z,28.14
2022-09-06T12:22:33.169Z,28.14
2022-09-06T12:23:33.150Z,28.17
2022-09-06T12:24:33.164Z,28.18
2022-09-06T12:25:33.144Z,28.20
2022-09-06T12:26:33.119Z,28.23
2022-09-06T12:27:33.113Z,28.27
2022-09-06T12:28:33.080Z,28.30
2022-09-06T12:29:33.079Z,28.30
2022-09-06T12:30:33.064Z,28.28
2022-09-06T12:31:33.257Z,28.23
2022-09-06T12:32:36.785Z,28.23
2022-09-06T12:33:33.010Z,28.14
2022-09-06T12:34:33.039Z,28.14
2022-09-06T12:36:33.977Z,28.11
2022-09-06T12:37:32.960Z,28.11
2022-09-06T12:38:32.963Z,28.11
2022-09-06T12:39:33.052Z,28.14
2022-09-06T12:40:32.939Z,28.14
2022-09-06T12:41:32.909Z,28.18
2022-09-06T12:42:32.900Z,28.21
2022-09-06T12:43:32.890Z,28.25
2022-09-06T12:44:32.886Z,28.28
2022-09-06T12:45:32.873Z,28.30
2022-09-06T12:46:33.028Z,28.35
2022-09-06T12:47:32.838Z,28.35
2022-09-06T12:48:32.823Z,28.35
2022-09-06T12:49:32.834Z,28.35
2022-09-06T12:50:32.789Z,28.36
2022-09-06T12:51:32.782Z,28.38
2022-09-06T12:52:32.767Z,28.40
2022-09-06T12:53:32.760Z,28.40
2022-09-06T12:54:32.787Z,28.43
2022-09-06T12:55:32.750Z,28.46
2022-09-06T12:56:32.721Z,28.46
2022-09-06T12:57:32.732Z,28.48
2022-09-06T12:58:32.689Z,28.46
2022-09-06T12:59:32.711Z,28.46
2022-09-06T13:00:32.698Z,28.51
2022-09-06T13:01:32.796Z,28.51
2022-09-06T13:02:32.855Z,28.46
2022-09-06T13:03:32.629Z,28.45
2022-09-06T13:04:32.638Z,28.43
2022-09-06T13:05:32.620Z,28.40
2022-09-06T13:06:32.623Z,28.38
2022-09-06T13:07:32.601Z,28.33
2022-09-06T13:08:32.603Z,28.30
2022-09-06T13:09:32.582Z,28.27
2022-09-06T13:10:32.553Z,28.28
2022-09-06T13:11:32.544Z,28.32
2022-09-06T13:12:32.511Z,28.32
2022-09-06T13:13:32.521Z,28.32
2022-09-06T13:14:40.080Z,28.35
2022-09-06T13:15:33.304Z,28.38
2022-09-06T13:16:32.471Z,28.35
2022-09-06T13:17:33.160Z,28.30
2022-09-06T13:18:32.440Z,28.30